Time;durP1;ratioP1;P1;durP2;ratioP2;P2;SDS_P1;SDS_P2;PMS_P1;PMS_P2;Temp;Humidity;BMP_temperature;BMP_pressure;BME280_temperature;BME280_humidity;BME280_pressure;Samples;Min_cycle;Max_cycle;Signal;HPM_P1;HPM_P2
2021/04/28 00:01:51;;;;;;;6.05;4.85;;;11.60;57.40;;;;;;4974001;28;20352;-66
2021/04/28 00:04:16;;;;;;;8.60;6.35;;;11.50;57.60;;;;;;4973945;28;20026;-67
2021/04/28 00:06:45;;;;;;;7.43;4.65;;;11.50;57.60;;;;;;4973412;28;20377;-66
2021/04/28 00:09:11;;;;;;;15.02;5.82;;;11.50;57.40;;;;;;4973877;28;20105;-66
2021/04/28 00:11:37;;;;;;;6.35;4.65;;;11.60;57.20;;;;;;4973427;28;20034;-67
2021/04/28 00:14:06;;;;;;;6.38;4.95;;;11.50;57.40;;;;;;4991148;28;20053;-67
2021/04/28 00:16:33;;;;;;;10.90;5.53;;;11.30;57.90;;;;;;4990944;28;20049;-70
2021/04/28 00:18:59;;;;;;;12.18;5.43;;;11.20;58.40;;;;;;4991618;28;20030;-66
2021/04/28 00:21:24;;;;;;;6.90;4.32;;;11.30;58.20;;;;;;4990699;28;20026;-67
2021/04/28 00:23:50;;;;;;;9.35;4.70;;;11.30;58.50;;;;;;4991484;28;20518;-67
2021/04/28 00:26:16;;;;;;;10.13;5.10;;;11.20;58.60;;;;;;4973837;28;20034;-67
2021/04/28 00:28:43;;;;;;;6.25;4.30;;;11.20;58.10;;;;;;4973686;28;20305;-67
2021/04/28 00:31:09;;;;;;;9.57;5.13;;;11.30;57.80;;;;;;4994136;28;20093;-66
2021/04/28 00:33:35;;;;;;;6.70;5.05;;;11.30;57.80;;;;;;4994402;28;20365;-66
2021/04/28 00:36:01;;;;;;;9.30;4.70;;;11.30;58.10;;;;;;4977412;28;20495;-66
2021/04/28 00:38:27;;;;;;;9.48;5.38;;;11.10;58.40;;;;;;4994495;28;20456;-66
2021/04/28 00:40:53;;;;;;;6.43;5.32;;;11.10;58.80;;;;;;4977377;28;20022;-67
2021/04/28 00:43:19;;;;;;;7.63;5.82;;;11.00;58.50;;;;;;4994403;28;20069;-67
2021/04/28 00:45:45;;;;;;;7.50;5.07;;;11.00;59.00;;;;;;4977014;28;20117;-67
2021/04/28 00:48:12;;;;;;;6.97;5.05;;;11.00;59.10;;;;;;4994567;28;20475;-67
2021/04/28 00:50:44;;;;;;;19.05;4.53;;;11.00;58.70;;;;;;4976871;28;20069;-67
2021/04/28 00:53:13;;;;;;;8.88;4.95;;;11.00;58.80;;;;;;4994608;28;20035;-68
2021/04/28 00:55:40;;;;;;;7.47;4.72;;;10.90;59.10;;;;;;4993999;28;20364;-67
2021/04/28 00:58:06;;;;;;;8.82;5.03;;;11.00;58.90;;;;;;4994670;28;20045;-67
2021/04/28 01:00:32;;;;;;;8.02;5.43;;;10.90;59.00;;;;;;4976555;28;20027;-67
2021/04/28 01:02:58;;;;;;;9.73;4.82;;;10.90;59.00;;;;;;4994758;28;20337;-67
2021/04/28 01:05:24;;;;;;;8.00;4.68;;;10.90;59.00;;;;;;4994567;28;20027;-67
2021/04/28 01:07:50;;;;;;;7.95;4.70;;;10.90;59.10;;;;;;4994592;28;20348;-67
2021/04/28 01:10:25;;;;;;;9.98;5.25;;;10.90;59.10;;;;;;4977173;28;20037;-67
2021/04/28 01:12:52;;;;;;;8.60;4.82;;;10.80;59.20;;;;;;4994506;28;20148;-67
2021/04/28 01:15:23;;;;;;;6.70;4.57;;;10.70;59.80;;;;;;4976855;28;20030;-67
2021/04/28 01:17:50;;;;;;;6.45;5.13;;;10.80;59.80;;;;;;4993924;28;20026;-67
2021/04/28 01:20:20;;;;;;;7.05;4.97;;;10.70;59.90;;;;;;4994188;28;20037;-67
2021/04/28 01:22:48;;;;;;;12.93;4.65;;;10.80;59.50;;;;;;4993531;28;20408;-67
2021/04/28 01:25:16;;;;;;;7.65;4.63;;;10.80;59.50;;;;;;4994337;28;20354;-67
2021/04/28 01:27:46;;;;;;;8.23;4.97;;;10.80;59.30;;;;;;4993859;28;20076;-66
2021/04/28 01:30:14;;;;;;;9.38;5.30;;;10.80;59.60;;;;;;4976564;28;20031;-66
2021/04/28 01:32:45;;;;;;;8.85;5.28;;;10.70;59.70;;;;;;4976020;28;20030;-67
2021/04/28 01:35:17;;;;;;;6.00;4.95;;;10.70;59.50;;;;;;4976653;28;20106;-67
2021/04/28 01:37:45;;;;;;;11.38;4.82;;;10.60;59.60;;;;;;4993613;28;20032;-66
2021/04/28 01:40:13;;;;;;;7.65;5.22;;;10.60;60.00;;;;;;4976229;28;20034;-67
2021/04/28 01:42:41;;;;;;;10.88;5.57;;;10.70;59.70;;;;;;4974351;28;20314;-66
2021/04/28 01:45:08;;;;;;;8.70;5.63;;;10.70;59.90;;;;;;4993824;28;20034;-66
2021/04/28 01:47:34;;;;;;;8.43;4.63;;;10.50;60.10;;;;;;4975765;28;20175;-67
2021/04/28 01:50:00;;;;;;;10.55;5.75;;;10.50;60.40;;;;;;4993409;28;20030;-67
2021/04/28 01:52:25;;;;;;;7.45;5.13;;;10.50;60.20;;;;;;4993834;28;20041;-67
2021/04/28 01:54:51;;;;;;;12.30;5.50;;;10.50;60.10;;;;;;4993055;28;20026;-67
2021/04/28 01:57:17;;;;;;;13.52;5.82;;;10.50;60.40;;;;;;4993850;28;20022;-67
2021/04/28 01:59:44;;;;;;;6.85;4.57;;;10.50;60.10;;;;;;4992968;28;20026;-67
2021/04/28 02:02:10;;;;;;;7.50;4.90;;;10.50;60.20;;;;;;4993535;28;20042;-67
2021/04/28 02:04:39;;;;;;;8.73;5.43;;;10.40;60.10;;;;;;4975318;28;20200;-66
2021/04/28 02:07:05;;;;;;;6.78;4.68;;;10.30;60.70;;;;;;4993113;28;20045;-68
2021/04/28 02:09:31;;;;;;;9.85;4.97;;;10.40;60.40;;;;;;4993044;28;20026;-68
2021/04/28 02:11:57;;;;;;;7.50;5.18;;;10.40;60.40;;;;;;4993705;28;20026;-68
2021/04/28 02:14:24;;;;;;;7.68;5.00;;;10.40;60.40;;;;;;4975590;28;20069;-66
2021/04/28 02:16:51;;;;;;;11.48;5.05;;;10.40;60.70;;;;;;4975095;28;20049;-68
2021/04/28 02:19:17;;;;;;;7.65;4.78;;;10.30;61.10;;;;;;4975599;28;20127;-67
2021/04/28 02:21:51;;;;;;;11.60;5.72;;;10.30;60.70;;;;;;4992386;28;20454;-68
2021/04/28 02:24:17;;;;;;;6.40;4.55;;;10.30;61.00;;;;;;4975399;28;20042;-67
2021/04/28 02:26:44;;;;;;;7.03;5.18;;;10.30;60.60;;;;;;4992895;28;20026;-68
2021/04/28 02:29:10;;;;;;;8.10;4.85;;;10.20;60.90;;;;;;4992910;28;20052;-68
2021/04/28 02:31:37;;;;;;;7.10;4.95;;;10.10;61.00;;;;;;4974909;28;20037;-68
2021/04/28 02:34:05;;;;;;;11.82;5.82;;;10.10;61.30;;;;;;4974844;28;20034;-67
2021/04/28 02:36:39;;;;;;;9.90;5.57;;;10.20;60.70;;;;;;4974669;28;20030;-75
2021/04/28 02:39:17;;;;;;;10.95;4.70;;;10.20;60.90;;;;;;4992542;28;20061;-67
2021/04/28 02:41:45;;;;;;;10.00;6.07;;;10.20;60.90;;;;;;4992239;28;20026;-68
2021/04/28 02:44:14;;;;;;;7.03;5.07;;;10.10;61.00;;;;;;4992425;28;20046;-68
2021/04/28 02:46:41;;;;;;;9.35;5.70;;;10.10;61.20;;;;;;4974500;28;20042;-67
2021/04/28 02:49:08;;;;;;;8.40;5.18;;;10.10;61.30;;;;;;4975187;28;20222;-68
2021/04/28 02:51:36;;;;;;;10.40;5.88;;;10.20;60.80;;;;;;4992163;28;20046;-69
2021/04/28 02:54:02;;;;;;;7.13;4.72;;;10.10;60.90;;;;;;4992189;28;20037;-66
2021/04/28 02:56:29;;;;;;;9.27;5.00;;;10.10;60.90;;;;;;4992511;28;20433;-67
2021/04/28 02:58:56;;;;;;;6.85;4.80;;;10.00;60.90;;;;;;4991930;28;20481;-68
2021/04/28 03:01:22;;;;;;;7.05;4.82;;;10.00;61.20;;;;;;4992284;28;20145;-67
2021/04/28 03:03:50;;;;;;;10.05;4.40;;;10.00;61.20;;;;;;4991393;28;20089;-68
2021/04/28 03:06:16;;;;;;;5.93;5.15;;;9.90;61.40;;;;;;4992526;28;20033;-68
2021/04/28 03:08:43;;;;;;;11.07;5.55;;;9.90;61.40;;;;;;4974240;28;20101;-68
2021/04/28 03:11:10;;;;;;;10.32;5.68;;;9.90;61.70;;;;;;4974565;28;20049;-67
2021/04/28 03:13:37;;;;;;;7.95;5.30;;;9.90;61.30;;;;;;4991640;28;20109;-68
2021/04/28 03:16:02;;;;;;;10.30;5.25;;;9.80;61.70;;;;;;4992220;28;20084;-67
2021/04/28 03:18:28;;;;;;;9.15;5.28;;;9.90;61.90;;;;;;4992107;28;20442;-67
2021/04/28 03:20:55;;;;;;;6.78;4.70;;;9.80;61.80;;;;;;4974026;28;20437;-68
2021/04/28 03:23:21;;;;;;;7.45;5.10;;;9.80;61.60;;;;;;4974207;28;20468;-67
2021/04/28 03:25:47;;;;;;;6.95;5.53;;;9.70;62.00;;;;;;4973992;28;20022;-68
2021/04/28 03:28:12;;;;;;;10.85;5.20;;;9.70;61.80;;;;;;4992067;28;20031;-68
2021/04/28 03:30:38;;;;;;;6.78;4.93;;;9.60;61.90;;;;;;4991458;28;20022;-67
2021/04/28 03:33:04;;;;;;;7.57;4.97;;;9.70;62.30;;;;;;4991881;28;20085;-67
2021/04/28 03:35:30;;;;;;;6.97;5.15;;;9.60;62.30;;;;;;4991486;28;20091;-67
2021/04/28 03:37:56;;;;;;;12.57;5.38;;;9.60;62.00;;;;;;4973768;28;20061;-67
2021/04/28 03:40:22;;;;;;;6.00;4.97;;;9.60;62.40;;;;;;4974386;28;20148;-69
2021/04/28 03:42:47;;;;;;;11.38;5.63;;;9.50;62.40;;;;;;4990930;28;20100;-68
2021/04/28 03:45:14;;;;;;;8.70;5.05;;;9.60;62.40;;;;;;4974295;28;20081;-68
2021/04/28 03:47:40;;;;;;;6.22;5.18;;;9.50;62.40;;;;;;4991000;28;20035;-68
2021/04/28 03:50:06;;;;;;;7.68;4.97;;;9.50;62.30;;;;;;4974150;28;20180;-67
2021/04/28 03:52:32;;;;;;;11.77;5.63;;;9.50;62.40;;;;;;4991699;28;20337;-67
2021/04/28 03:54:59;;;;;;;14.68;6.10;;;9.50;62.40;;;;;;4991295;28;20067;-67
2021/04/28 03:57:25;;;;;;;8.90;4.88;;;9.50;62.40;;;;;;4974120;28;20117;-68
2021/04/28 03:59:50;;;;;;;6.53;5.22;;;9.40;62.80;;;;;;4991163;28;20120;-68
2021/04/28 04:02:16;;;;;;;7.15;5.35;;;9.40;62.80;;;;;;4991293;28;20026;-68
2021/04/28 04:04:41;;;;;;;11.27;5.38;;;9.30;63.50;;;;;;4973806;28;20088;-67
2021/04/28 04:07:07;;;;;;;8.10;5.88;;;9.30;63.50;;;;;;4978188;28;20030;-67
2021/04/28 04:09:33;;;;;;;13.35;5.22;;;9.30;63.30;;;;;;4977691;28;20512;-69
2021/04/28 04:11:58;;;;;;;13.75;5.78;;;9.30;63.20;;;;;;4977461;28;20333;-67
2021/04/28 04:14:24;;;;;;;9.57;5.88;;;9.30;63.00;;;;;;4978037;28;20124;-67
2021/04/28 04:16:50;;;;;;;9.45;5.57;;;9.30;63.20;;;;;;4977632;28;20044;-68
2021/04/28 04:19:16;;;;;;;13.48;5.45;;;9.30;63.40;;;;;;4995370;28;20110;-67
2021/04/28 04:21:41;;;;;;;13.20;5.22;;;9.20;63.30;;;;;;4977150;28;20065;-69
2021/04/28 04:24:07;;;;;;;7.82;4.97;;;9.20;63.50;;;;;;4977656;28;20030;-68
2021/04/28 04:26:33;;;;;;;10.18;5.00;;;9.10;63.80;;;;;;4977875;28;20406;-69
2021/04/28 04:28:59;;;;;;;10.90;6.35;;;9.20;63.70;;;;;;4977205;28;20092;-68
2021/04/28 04:31:25;;;;;;;7.22;5.40;;;9.20;63.60;;;;;;4977649;28;20529;-68
2021/04/28 04:33:51;;;;;;;9.27;5.25;;;9.30;63.40;;;;;;4994388;28;20115;-68
2021/04/28 04:36:16;;;;;;;12.38;5.82;;;9.20;63.50;;;;;;4994985;28;20063;-68
2021/04/28 04:38:42;;;;;;;10.02;6.40;;;9.20;63.60;;;;;;4977154;28;20336;-69
2021/04/28 04:41:08;;;;;;;8.20;5.30;;;9.40;63.20;;;;;;4995338;28;20022;-69
2021/04/28 04:43:33;;;;;;;10.65;4.82;;;9.60;62.40;;;;;;4977045;28;20066;-69
2021/04/28 04:45:59;;;;;;;11.60;5.20;;;9.80;61.80;;;;;;4994700;28;20035;-69
2021/04/28 04:48:24;;;;;;;7.93;4.85;;;9.80;61.60;;;;;;4977407;28;20122;-69
2021/04/28 04:50:50;;;;;;;9.02;5.47;;;9.90;61.10;;;;;;4994323;28;20033;-68
2021/04/28 04:53:16;;;;;;;9.90;6.13;;;9.90;61.20;;;;;;4977151;28;20030;-69
2021/04/28 04:55:41;;;;;;;7.85;5.53;;;9.60;61.90;;;;;;4994252;28;20034;-69
2021/04/28 04:58:07;;;;;;;12.82;6.35;;;9.60;62.20;;;;;;4977334;28;20031;-69
2021/04/28 05:00:33;;;;;;;7.25;4.72;;;9.60;62.30;;;;;;4977286;28;20026;-69
2021/04/28 05:02:59;;;;;;;12.57;5.72;;;9.50;62.20;;;;;;4976515;28;20145;-67
2021/04/28 05:05:24;;;;;;;10.23;4.97;;;9.60;62.40;;;;;;4994747;28;20026;-69
2021/04/28 05:07:50;;;;;;;11.20;5.13;;;9.60;62.40;;;;;;4994017;28;20092;-68
2021/04/28 05:10:16;;;;;;;8.88;5.13;;;9.50;62.80;;;;;;4976814;28;20318;-68
2021/04/28 05:12:46;;;;;;;18.30;5.22;;;9.60;62.20;;;;;;4994359;28;20081;-69
2021/04/28 05:15:13;;;;;;;7.63;5.68;;;9.60;62.30;;;;;;4976763;28;20058;-68
2021/04/28 05:17:39;;;;;;;13.35;6.03;;;9.60;62.00;;;;;;4994199;28;20078;-68
2021/04/28 05:20:05;;;;;;;9.02;5.20;;;9.60;62.20;;;;;;4993966;28;20448;-68
2021/04/28 05:22:31;;;;;;;12.43;5.90;;;9.70;62.20;;;;;;4994678;28;20033;-68
2021/04/28 05:24:57;;;;;;;16.98;6.05;;;9.70;61.70;;;;;;4978387;28;20038;-67
2021/04/28 05:27:25;;;;;;;12.15;6.30;;;9.70;61.50;;;;;;4956952;28;20102;-68
2021/04/28 05:29:52;;;;;;;9.68;5.65;;;9.80;61.80;;;;;;4974400;28;20206;-69
2021/04/28 05:32:18;;;;;;;13.40;5.10;;;9.90;61.40;;;;;;4974326;28;20026;-68
2021/04/28 05:34:44;;;;;;;5.38;4.28;;;10.00;61.40;;;;;;4956461;28;20053;-70
2021/04/28 05:37:12;;;;;;;13.27;5.70;;;9.90;61.50;;;;;;4974408;28;20034;-70
2021/04/28 05:39:41;;;;;;;9.23;5.60;;;9.90;61.30;;;;;;4974269;28;20118;-69
2021/04/28 05:42:07;;;;;;;18.63;7.25;;;10.00;61.50;;;;;;4973909;28;20049;-64
2021/04/28 05:44:33;;;;;;;19.75;9.02;;;10.00;73.20;;;;;;4974589;28;20473;-64
2021/04/28 05:46:59;;;;;;;16.08;6.28;;;10.50;80.40;;;;;;4973649;28;20429;-66
2021/04/28 05:49:25;;;;;;;11.82;5.70;;;10.60;74.80;;;;;;4956152;28;20113;-64
2021/04/28 05:51:51;;;;;;;13.95;5.78;;;10.90;73.40;;;;;;4973429;28;20027;-68
2021/04/28 05:54:16;;;;;;;15.77;6.10;;;10.80;63.70;;;;;;4955839;28;20109;-71
2021/04/28 05:56:42;;;;;;;12.38;5.32;;;10.70;61.90;;;;;;4970750;28;20465;-71
2021/04/28 05:59:08;;;;;;;11.75;6.28;;;10.70;62.30;;;;;;4955346;28;20023;-67
2021/04/28 06:01:34;;;;;;;16.90;5.47;;;10.50;61.80;;;;;;4954795;28;20031;-64
2021/04/28 06:04:00;;;;;;;9.25;5.07;;;10.70;67.80;;;;;;4954232;28;20557;-64
2021/04/28 06:06:26;;;;;;;13.88;5.47;;;11.00;67.10;;;;;;4954070;28;20113;-64
2021/04/28 06:08:52;;;;;;;11.07;6.15;;;11.20;64.00;;;;;;4973395;28;20042;-66
2021/04/28 06:11:19;;;;;;;8.52;5.20;;;11.20;62.70;;;;;;4973172;28;20031;-65
2021/04/28 06:13:47;;;;;;;14.93;6.07;;;11.30;63.20;;;;;;4954279;28;20082;-64
2021/04/28 06:16:16;;;;;;;14.30;5.78;;;11.40;61.90;;;;;;4972134;28;20126;-63
2021/04/28 06:18:42;;;;;;;9.25;5.43;;;11.60;61.30;;;;;;4954376;28;20027;-63
2021/04/28 06:21:08;;;;;;;7.80;5.95;;;11.60;60.30;;;;;;4953670;28;20023;-63
2021/04/28 06:23:36;;;;;;;10.93;5.85;;;11.80;61.00;;;;;;4971377;28;20045;-66
2021/04/28 06:26:02;;;;;;;9.65;5.28;;;11.80;60.30;;;;;;4953937;28;20037;-64
2021/04/28 06:28:27;;;;;;;10.73;5.93;;;12.00;60.50;;;;;;4971212;28;20113;-63
2021/04/28 06:30:53;;;;;;;10.95;5.57;;;12.10;60.00;;;;;;4971052;28;20392;-65
2021/04/28 06:33:19;;;;;;;21.08;5.15;;;12.30;58.90;;;;;;4971325;28;20030;-63
2021/04/28 06:35:45;;;;;;;13.00;4.80;;;12.60;58.80;;;;;;4954126;28;20058;-65
2021/04/28 06:38:11;;;;;;;11.90;5.47;;;12.70;58.40;;;;;;4953932;28;20055;-69
2021/04/28 06:40:37;;;;;;;12.73;5.05;;;12.90;57.70;;;;;;4970114;28;20065;-70
2021/04/28 06:43:04;;;;;;;15.20;4.80;;;13.10;58.00;;;;;;4952079;28;20054;-65
2021/04/28 06:45:31;;;;;;;9.98;5.25;;;13.10;56.60;;;;;;4952911;28;20034;-63
2021/04/28 06:47:57;;;;;;;13.25;4.90;;;13.30;56.40;;;;;;4970780;28;20042;-71
2021/04/28 06:50:24;;;;;;;13.90;5.03;;;13.30;56.60;;;;;;4952770;28;20441;-66
2021/04/28 06:52:50;;;;;;;10.05;4.95;;;13.10;56.90;;;;;;4970299;28;20179;-66
2021/04/28 06:55:15;;;;;;;6.10;4.70;;;13.40;57.60;;;;;;4953097;28;20341;-65
2021/04/28 06:57:41;;;;;;;7.93;5.25;;;13.50;56.30;;;;;;4970317;28;20058;-65
2021/04/28 07:00:07;;;;;;;12.10;5.15;;;13.50;56.50;;;;;;4953373;28;20035;-62
2021/04/28 07:02:33;;;;;;;13.52;5.47;;;13.70;56.00;;;;;;4970866;28;20211;-63
2021/04/28 07:04:59;;;;;;;11.20;5.00;;;13.70;56.20;;;;;;4952606;28;20069;-67
2021/04/28 07:07:24;;;;;;;15.15;5.10;;;14.00;55.90;;;;;;4971315;28;20030;-64
2021/04/28 07:09:50;;;;;;;9.45;4.68;;;14.20;55.60;;;;;;4970509;28;20034;-64
2021/04/28 07:12:16;;;;;;;7.88;5.07;;;14.30;55.60;;;;;;4953663;28;20339;-63
2021/04/28 07:14:42;;;;;;;10.50;5.30;;;14.70;55.40;;;;;;4971280;28;20030;-64
2021/04/28 07:17:09;;;;;;;8.35;5.65;;;14.90;53.70;;;;;;4970312;28;20477;-63
2021/04/28 07:19:34;;;;;;;6.82;4.45;;;15.00;53.50;;;;;;4970598;28;20023;-63
2021/04/28 07:22:00;;;;;;;10.15;4.68;;;15.20;53.20;;;;;;4969892;28;20125;-72
2021/04/28 07:24:27;;;;;;;7.35;5.35;;;15.50;53.20;;;;;;4970647;28;20090;-64
2021/04/28 07:26:54;;;;;;;8.27;4.57;;;15.50;53.00;;;;;;4970197;28;20027;-64
2021/04/28 07:29:20;;;;;;;6.70;5.20;;;15.60;52.50;;;;;;4953041;28;20532;-62
2021/04/28 07:31:46;;;;;;;7.88;4.60;;;15.50;53.10;;;;;;4952112;28;20148;-74
2021/04/28 07:34:12;;;;;;;8.68;5.07;;;15.80;52.70;;;;;;4953207;28;20062;-64
2021/04/28 07:36:38;;;;;;;10.95;5.55;;;15.90;52.90;;;;;;4970632;28;20113;-63
2021/04/28 07:39:06;;;;;;;8.90;5.07;;;16.00;52.40;;;;;;4952272;28;20030;-70
2021/04/28 07:41:34;;;;;;;7.07;5.15;;;16.30;51.50;;;;;;4952769;28;20106;-73
2021/04/28 07:44:00;;;;;;;17.85;6.43;;;16.50;51.30;;;;;;4952600;28;20402;-68
2021/04/28 07:46:27;;;;;;;11.40;5.15;;;16.30;51.00;;;;;;4953051;28;20069;-67
2021/04/28 07:48:53;;;;;;;9.27;4.93;;;16.40;51.90;;;;;;4952204;28;20055;-71
2021/04/28 07:51:19;;;;;;;7.05;5.40;;;16.90;51.50;;;;;;4952096;28;20444;-69
2021/04/28 07:53:44;;;;;;;10.10;5.55;;;17.00;50.60;;;;;;4970215;28;20461;-69
2021/04/28 07:56:10;;;;;;;11.18;5.50;;;16.80;49.90;;;;;;4969604;28;20054;-68
2021/04/28 07:58:36;;;;;;;8.48;4.55;;;16.50;51.60;;;;;;4952594;28;20054;-69
2021/04/28 08:01:02;;;;;;;11.60;6.40;;;16.90;51.50;;;;;;4951577;28;20469;-69
2021/04/28 08:03:28;;;;;;;10.45;5.95;;;17.00;51.00;;;;;;4952583;28;20039;-67
2021/04/28 08:05:53;;;;;;;10.73;5.28;;;17.20;50.50;;;;;;4951387;28;20402;-67
2021/04/28 08:08:19;;;;;;;10.80;5.63;;;17.40;50.80;;;;;;4951836;28;20027;-67
2021/04/28 08:10:45;;;;;;;10.93;3.40;;;17.70;50.00;;;;;;4968886;28;20031;-69
2021/04/28 08:13:11;;;;;;;6.38;3.65;;;18.20;56.10;;;;;;4978622;28;20042;-73
2021/04/28 08:15:38;;;;;;;14.02;4.07;;;18.50;54.30;;;;;;4952742;28;20333;-67
2021/04/28 08:18:04;;;;;;;5.97;3.47;;;18.70;54.40;;;;;;4977713;28;20534;-68
2021/04/28 08:20:30;;;;;;;8.85;4.18;;;18.90;55.60;;;;;;4961211;28;20076;-70
2021/04/28 08:22:56;;;;;;;14.15;4.97;;;19.20;53.30;;;;;;4959018;28;20114;-68
2021/04/28 08:25:22;;;;;;;8.73;5.68;;;19.00;50.80;;;;;;4977352;28;20030;-70
2021/04/28 08:27:48;;;;;;;10.80;6.15;;;19.10;50.60;;;;;;4986334;28;20496;-76
2021/04/28 08:30:15;;;;;;;13.75;4.68;;;18.70;50.20;;;;;;4971527;28;20030;-70
2021/04/28 08:32:41;;;;;;;9.60;5.60;;;19.40;54.00;;;;;;4971033;28;20030;-70
2021/04/28 08:35:08;;;;;;;10.65;5.63;;;19.00;49.60;;;;;;4969901;28;20030;-70
2021/04/28 08:37:34;;;;;;;11.32;5.82;;;19.40;47.60;;;;;;4971013;28;20364;-70
2021/04/28 08:40:00;;;;;;;7.50;5.47;;;19.10;48.20;;;;;;4970507;28;20441;-70
2021/04/28 08:42:26;;;;;;;10.45;5.85;;;18.80;48.40;;;;;;4960305;28;20062;-70
2021/04/28 08:44:52;;;;;;;21.80;6.80;;;19.40;47.50;;;;;;4948167;29;20047;-69
2021/04/28 08:47:20;;;;;;;17.20;7.07;;;19.70;47.20;;;;;;4949067;29;20368;-70
2021/04/28 08:49:46;;;;;;;12.45;6.55;;;19.90;46.60;;;;;;4947576;29;20024;-78
2021/04/28 08:52:13;;;;;;;8.55;6.15;;;19.50;46.60;;;;;;4952879;28;20437;-70
2021/04/28 08:54:40;;;;;;;11.27;6.00;;;18.30;48.20;;;;;;4953557;28;20157;-70
2021/04/28 08:57:06;;;;;;;13.55;6.80;;;17.50;49.00;;;;;;4951562;29;20246;-68
2021/04/28 08:59:32;;;;;;;14.52;5.88;;;18.00;48.90;;;;;;4952130;29;20098;-70
2021/04/28 09:02:22;;;;;;;10.55;6.32;;;18.80;48.70;;;;;;4951469;29;20034;-69
2021/04/28 09:05:13;;;;;;;12.00;6.38;;;19.80;47.70;;;;;;4952793;28;20441;-70
2021/04/28 09:07:41;;;;;;;14.55;7.57;;;19.90;45.90;;;;;;4951201;29;20043;-69
2021/04/28 09:10:10;;;;;;;8.90;5.93;;;18.50;47.50;;;;;;4952576;29;20046;-71
2021/04/28 09:12:36;;;;;;;15.07;6.65;;;19.20;47.90;;;;;;4951611;29;20441;-68
2021/04/28 09:15:04;;;;;;;9.10;6.50;;;20.20;46.40;;;;;;4952331;29;20036;-68
2021/04/28 09:17:30;;;;;;;13.40;6.22;;;20.60;46.30;;;;;;4951898;29;20739;-67
2021/04/28 09:20:16;;;;;;;9.88;6.93;;;21.10;45.80;;;;;;4952439;29;20136;-68
2021/04/28 09:22:49;;;;;;;12.05;6.63;;;21.50;45.20;;;;;;4952753;28;20091;-69
2021/04/28 09:25:33;;;;;;;12.73;7.60;;;21.20;44.50;;;;;;4951561;29;20038;-66
2021/04/28 09:28:30;;;;;;;12.77;6.75;;;20.10;46.20;;;;;;4949600;29;20027;-65
2021/04/28 09:31:08;;;;;;;9.85;6.93;;;20.00;46.30;;;;;;4949218;29;20032;-66
2021/04/28 09:33:55;;;;;;;12.13;6.63;;;20.30;46.40;;;;;;4949930;29;20046;-66
2021/04/28 09:36:28;;;;;;;16.52;7.88;;;20.60;45.70;;;;;;4950409;28;20065;-67
2021/04/28 09:38:54;;;;;;;14.18;7.78;;;20.60;45.80;;;;;;4950190;28;20065;-67
2021/04/28 09:41:33;;;;;;;8.70;6.82;;;21.00;45.40;;;;;;4950395;29;20353;-67
2021/04/28 09:43:59;;;;;;;11.32;6.80;;;20.00;45.80;;;;;;4965848;28;20051;-65
2021/04/28 09:46:24;;;;;;;12.07;7.32;;;19.90;46.90;;;;;;4956080;28;20467;-67
2021/04/28 09:49:09;;;;;;;15.63;8.43;;;20.40;46.50;;;;;;4951723;28;20046;-66
2021/04/28 09:51:36;;;;;;;9.98;6.80;;;20.80;45.70;;;;;;4952755;28;20098;-68
2021/04/28 09:54:13;;;;;;;10.57;6.57;;;20.90;45.40;;;;;;4970688;28;20476;-66
2021/04/28 09:56:40;;;;;;;13.75;7.85;;;21.50;45.20;;;;;;4952721;28;20115;-66
2021/04/28 09:59:06;;;;;;;11.90;7.30;;;21.90;44.80;;;;;;4953252;28;20041;-65
2021/04/28 10:01:34;;;;;;;13.00;7.57;;;21.70;44.70;;;;;;4952475;28;20034;-64
2021/04/28 10:04:02;;;;;;;14.65;7.47;;;21.50;44.70;;;;;;4951757;28;20168;-65
2021/04/28 10:06:50;;;;;;;9.18;7.20;;;22.20;44.90;;;;;;4971076;28;20181;-67
2021/04/28 10:09:34;;;;;;;10.25;7.50;;;22.20;43.60;;;;;;4953135;28;20026;-68
2021/04/28 10:12:03;;;;;;;13.02;7.95;;;22.10;44.70;;;;;;4951733;28;20162;-69
2021/04/28 10:14:29;;;;;;;12.65;7.43;;;22.40;44.40;;;;;;4968554;28;20041;-67
2021/04/28 10:16:56;;;;;;;16.23;6.90;;;22.80;44.30;;;;;;4968811;28;20108;-67
2021/04/28 10:19:25;;;;;;;14.30;7.80;;;23.50;43.90;;;;;;4970005;28;20076;-64
2021/04/28 10:21:55;;;;;;;10.90;7.95;;;23.40;42.90;;;;;;4961100;28;20030;-66
2021/04/28 10:24:22;;;;;;;14.18;7.40;;;22.60;43.60;;;;;;4952784;28;20499;-65
2021/04/28 10:26:50;;;;;;;16.90;8.38;;;22.40;44.00;;;;;;4970720;28;20090;-68
2021/04/28 10:29:20;;;;;;;17.13;8.75;;;22.90;43.90;;;;;;4952835;28;20039;-67
2021/04/28 10:31:51;;;;;;;13.00;7.93;;;23.00;43.80;;;;;;4952879;28;20038;-64
2021/04/28 10:34:41;;;;;;;11.77;7.53;;;23.40;42.90;;;;;;4952527;28;20114;-66
2021/04/28 10:37:07;;;;;;;10.75;7.53;;;23.40;43.40;;;;;;4953078;28;20093;-66
2021/04/28 10:39:34;;;;;;;11.30;7.50;;;23.90;43.10;;;;;;4953076;28;20023;-65
2021/04/28 10:42:01;;;;;;;10.48;6.80;;;24.40;42.70;;;;;;4952893;28;20053;-68
2021/04/28 10:44:32;;;;;;;10.48;7.50;;;24.30;42.90;;;;;;4953106;28;20062;-65
2021/04/28 10:47:29;;;;;;;12.77;7.75;;;23.80;42.50;;;;;;4969247;28;20082;-72
2021/04/28 10:50:21;;;;;;;12.57;7.45;;;23.20;43.80;;;;;;4953151;28;20555;-64
2021/04/28 10:53:00;;;;;;;13.70;7.82;;;23.70;44.70;;;;;;4953201;28;20436;-65
2021/04/28 10:55:50;;;;;;;10.95;7.72;;;23.90;43.00;;;;;;4952645;28;20027;-67
2021/04/28 10:58:27;;;;;;;13.48;7.75;;;24.20;43.00;;;;;;4951549;28;20101;-68
2021/04/28 11:01:03;;;;;;;12.02;8.20;;;24.30;42.40;;;;;;4952983;28;20365;-77
2021/04/28 11:03:41;;;;;;;17.58;8.25;;;24.10;42.60;;;;;;4952738;28;20093;-64
2021/04/28 11:08:57;;;;;;;12.60;7.88;;;23.70;43.80;;;;;;4970354;28;20031;-70
2021/04/28 11:11:46;;;;;;;10.77;7.60;;;24.00;43.30;;;;;;4952327;28;20168;-65
2021/04/28 11:14:16;;;;;;;12.88;8.13;;;24.20;43.10;;;;;;4946875;28;20296;-64
2021/04/28 11:16:45;;;;;;;16.35;8.13;;;24.50;42.70;;;;;;4952319;28;20039;-66
2021/04/28 11:19:19;;;;;;;13.45;7.18;;;24.40;43.00;;;;;;4951469;28;20027;-64
2021/04/28 11:21:47;;;;;;;12.35;6.68;;;25.10;43.60;;;;;;4969792;28;20018;-64
2021/04/28 11:24:14;;;;;;;10.40;7.47;;;24.80;43.60;;;;;;4950523;28;20042;-63
2021/04/28 11:26:49;;;;;;;13.30;7.72;;;23.90;43.70;;;;;;4969001;28;20035;-65
2021/04/28 11:29:15;;;;;;;15.30;7.43;;;24.30;44.40;;;;;;4951229;28;20034;-68
2021/04/28 11:31:51;;;;;;;14.45;7.90;;;24.30;44.30;;;;;;4969577;28;20117;-65
2021/04/28 11:34:32;;;;;;;15.27;8.57;;;23.40;43.40;;;;;;4950057;28;20463;-66
2021/04/28 11:37:03;;;;;;;16.95;9.23;;;23.60;43.30;;;;;;4968614;28;20027;-66
2021/04/28 11:39:40;;;;;;;13.82;8.00;;;23.80;43.00;;;;;;4969288;28;20039;-65
2021/04/28 11:42:16;;;;;;;12.32;7.82;;;24.00;42.80;;;;;;4951327;28;20481;-67
2021/04/28 11:44:53;;;;;;;11.98;8.10;;;24.50;42.10;;;;;;4927334;29;20131;-65
2021/04/28 11:47:27;;;;;;;10.65;7.32;;;23.80;41.90;;;;;;4929464;29;20108;-67
2021/04/28 11:49:55;;;;;;;10.95;8.10;;;23.90;41.90;;;;;;4930873;29;20095;-74
2021/04/28 11:52:22;;;;;;;11.73;7.80;;;23.60;42.10;;;;;;4928996;29;20032;-63
2021/04/28 11:54:56;;;;;;;13.43;7.78;;;23.50;43.00;;;;;;4927675;29;20059;-66
2021/04/28 11:57:31;;;;;;;12.10;8.57;;;23.30;42.40;;;;;;4928164;29;20090;-64
2021/04/28 12:00:07;;;;;;;11.27;8.07;;;23.00;42.60;;;;;;4930164;29;20142;-74
2021/04/28 12:02:33;;;;;;;17.63;8.10;;;22.90;42.70;;;;;;4929279;29;20051;-67
2021/04/28 12:04:59;;;;;;;10.70;7.35;;;23.60;42.70;;;;;;4929280;29;20144;-65
2021/04/28 12:07:25;;;;;;;13.55;7.30;;;24.10;42.50;;;;;;4930422;29;20032;-64
2021/04/28 12:09:52;;;;;;;9.90;6.70;;;24.10;41.20;;;;;;4930603;29;20035;-64
2021/04/28 12:12:28;;;;;;;14.23;8.10;;;24.50;40.60;;;;;;4929004;29;20742;-64
2021/04/28 12:15:06;;;;;;;9.80;7.03;;;24.30;39.40;;;;;;4932912;29;20050;-71
2021/04/28 12:17:34;;;;;;;12.75;6.72;;;24.40;39.70;;;;;;4930461;29;20028;-64
2021/04/28 12:20:00;;;;;;;14.35;7.75;;;24.30;39.30;;;;;;4929945;29;20088;-65
2021/04/28 12:22:27;;;;;;;16.35;8.57;;;24.20;38.80;;;;;;4930662;29;20059;-65
2021/04/28 12:24:58;;;;;;;13.05;7.45;;;24.50;39.10;;;;;;4932197;29;20082;-64
2021/04/28 12:27:35;;;;;;;8.60;6.13;;;24.60;38.50;;;;;;4935120;29;20039;-64
2021/04/28 12:30:14;;;;;;;7.85;5.78;;;24.40;37.20;;;;;;4934315;29;20429;-65
2021/04/28 12:32:46;;;;;;;13.30;7.32;;;23.90;37.20;;;;;;4934440;29;20062;-64
2021/04/28 12:35:14;;;;;;;8.30;5.22;;;23.80;36.30;;;;;;4933854;29;20031;-64
2021/04/28 12:37:56;;;;;;;11.60;6.40;;;23.90;36.50;;;;;;4935815;29;20135;-64
2021/04/28 12:40:41;;;;;;;10.88;5.90;;;24.20;37.10;;;;;;4936254;29;20096;-64
2021/04/28 12:43:10;;;;;;;11.02;5.05;;;24.50;36.00;;;;;;4940630;29;20444;-64
2021/04/28 12:45:37;;;;;;;11.02;4.90;;;24.70;36.00;;;;;;4954990;28;20405;-65
2021/04/28 12:48:06;;;;;;;9.60;6.00;;;24.70;36.20;;;;;;4954570;28;20031;-64
2021/04/28 12:50:33;;;;;;;10.77;6.13;;;24.80;36.40;;;;;;4953376;29;20166;-65
2021/04/28 12:53:08;;;;;;;8.52;6.03;;;24.60;35.10;;;;;;4954659;28;20023;-66